createdAt,value
2018-11-20T00:01:03.568Z,0
2018-11-20T00:02:12.216Z,0
2018-11-20T00:03:20.848Z,0
2018-11-20T00:04:29.483Z,0
2018-11-20T00:05:38.110Z,0
2018-11-20T00:06:46.751Z,0
2018-11-20T00:07:55.382Z,0
2018-11-20T00:09:04.290Z,0
2018-11-20T00:10:12.918Z,0
2018-11-20T00:11:21.550Z,0
2018-11-20T00:12:30.188Z,0
2018-11-20T00:13:38.821Z,0
2018-11-20T00:14:47.458Z,0
2018-11-20T00:15:56.081Z,0
2018-11-20T00:17:04.719Z,0
2018-11-20T00:18:13.348Z,0
2018-11-20T00:19:22.258Z,0
2018-11-20T00:20:30.881Z,0
2018-11-20T00:21:39.521Z,0
2018-11-20T00:22:48.148Z,0
2018-11-20T00:23:56.786Z,0
2018-11-20T00:25:05.413Z,0
2018-11-20T00:26:14.050Z,0
2018-11-20T00:27:22.682Z,0
2018-11-20T00:28:31.325Z,0
2018-11-20T00:29:39.952Z,0
2018-11-20T00:30:48.584Z,0
2018-11-20T00:31:57.479Z,0
2018-11-20T00:33:06.373Z,0
2018-11-20T00:34:15.013Z,0
2018-11-20T00:35:23.644Z,0
2018-11-20T00:36:32.278Z,0
2018-11-20T00:37:40.905Z,0
2018-11-20T00:38:49.547Z,0
2018-11-20T00:39:58.447Z,0
2018-11-20T00:41:07.081Z,0
2018-11-20T00:42:15.748Z,0
2018-11-20T00:43:24.679Z,0
2018-11-20T00:44:33.310Z,0
2018-11-20T00:45:41.945Z,0
2018-11-20T00:46:50.581Z,0
2018-11-20T00:47:59.477Z,0
2018-11-20T00:49:08.111Z,0
2018-11-20T00:50:16.749Z,0
2018-11-20T00:51:25.649Z,0
2018-11-20T00:52:34.277Z,0
2018-11-20T00:53:42.911Z,0
2018-11-20T00:54:51.812Z,0
2018-11-20T00:56:00.452Z,0
2018-11-20T00:57:10.193Z,0
2018-11-20T00:58:19.072Z,0
2018-11-20T00:59:27.705Z,0
2018-11-20T01:00:36.343Z,0
2018-11-20T01:01:44.974Z,0
2018-11-20T01:02:53.873Z,0
2018-11-20T01:04:02.508Z,0
2018-11-20T01:05:11.147Z,0
2018-11-20T01:06:19.776Z,0
2018-11-20T01:07:28.415Z,0
2018-11-20T01:08:37.045Z,0
2018-11-20T01:09:45.680Z,0
2018-11-20T01:10:54.580Z,0
2018-11-20T01:12:03.748Z,0
2018-11-20T01:13:12.684Z,0
2018-11-20T01:14:21.585Z,0
2018-11-20T01:15:30.224Z,0
2018-11-20T01:16:38.854Z,0
2018-11-20T01:17:47.490Z,0
2018-11-20T01:18:56.125Z,0
2018-11-20T01:20:05.027Z,0
2018-11-20T01:21:13.663Z,0
2018-11-20T01:22:22.302Z,0
2018-11-20T01:23:30.928Z,0
2018-11-20T01:24:39.564Z,0
2018-11-20T01:25:48.204Z,0
2018-11-20T01:26:56.840Z,0
2018-11-20T01:28:05.475Z,0
2018-11-20T01:29:14.364Z,0
2018-11-20T01:30:23.003Z,0
2018-11-20T01:31:31.635Z,0
2018-11-20T01:32:40.275Z,0
2018-11-20T01:33:48.904Z,0
2018-11-20T01:34:57.545Z,0
2018-11-20T01:36:06.174Z,0
2018-11-20T01:37:14.825Z,0
2018-11-20T01:38:23.444Z,0
2018-11-20T01:39:32.082Z,0
2018-11-20T01:40:40.715Z,0
2018-11-20T01:41:49.356Z,0
2018-11-20T01:42:57.987Z,0
2018-11-20T01:44:06.621Z,0
2018-11-20T01:45:16.463Z,0
2018-11-20T01:46:25.090Z,0
2018-11-20T01:47:33.735Z,0
2018-11-20T01:48:42.362Z,0
2018-11-20T01:49:51.002Z,0
2018-11-20T01:50:59.629Z,0
2018-11-20T01:52:08.273Z,0
2018-11-20T01:53:16.904Z,0
2018-11-20T01:54:25.805Z,0
2018-11-20T01:55:34.431Z,0
2018-11-20T01:56:43.079Z,0
2018-11-20T01:57:51.706Z,0
2018-11-20T01:59:00.342Z,0
2018-11-20T02:00:08.968Z,0
2018-11-20T02:01:17.604Z,0
2018-11-20T02:02:26.244Z,0
2018-11-20T02:03:34.881Z,0
2018-11-20T02:04:43.517Z,0
2018-11-20T02:05:52.143Z,0
2018-11-20T02:07:00.783Z,0
2018-11-20T02:08:09.412Z,0
2018-11-20T02:09:18.053Z,0
2018-11-20T02:10:26.678Z,0
2018-11-20T02:11:35.315Z,0
2018-11-20T02:12:43.949Z,0
2018-11-20T02:13:52.590Z,0
2018-11-20T02:15:01.216Z,0
2018-11-20T02:16:09.854Z,0
2018-11-20T02:17:18.756Z,0
2018-11-20T02:18:27.658Z,0
2018-11-20T02:19:36.289Z,0
2018-11-20T02:20:44.917Z,0
2018-11-20T02:21:53.823Z,0
2018-11-20T02:23:02.459Z,0
2018-11-20T02:24:11.085Z,0
2018-11-20T02:25:19.723Z,0
2018-11-20T02:26:28.617Z,0
2018-11-20T02:27:37.259Z,0
2018-11-20T02:28:45.884Z,0
2018-11-20T02:29:54.521Z,0
2018-11-20T02:31:03.153Z,0
2018-11-20T02:32:11.794Z,0
2018-11-20T02:33:20.678Z,0
2018-11-20T02:34:29.314Z,0
2018-11-20T02:35:37.946Z,0
2018-11-20T02:36:46.592Z,0
2018-11-20T02:37:55.486Z,0
2018-11-20T02:39:04.127Z,0
2018-11-20T02:40:12.757Z,0
2018-11-20T02:41:21.392Z,0
2018-11-20T02:42:30.040Z,0
2018-11-20T02:43:38.666Z,0
2018-11-20T02:44:47.307Z,0
2018-11-20T02:45:55.932Z,0
2018-11-20T02:47:04.840Z,0
2018-11-20T02:48:14.368Z,0
2018-11-20T02:49:23.725Z,0
2018-11-20T02:50:32.613Z,0
2018-11-20T02:51:41.255Z,0
2018-11-20T02:52:49.886Z,0
2018-11-20T02:53:58.522Z,0
2018-11-20T02:55:07.148Z,0
2018-11-20T02:56:15.780Z,0
2018-11-20T02:57:24.422Z,0
2018-11-20T02:58:33.321Z,0
2018-11-20T02:59:41.957Z,0
2018-11-20T03:00:50.584Z,0
2018-11-20T03:01:59.223Z,0
2018-11-20T03:03:08.122Z,0
2018-11-20T03:04:16.759Z,0
2018-11-20T03:05:25.384Z,0
2018-11-20T03:06:34.022Z,0
2018-11-20T03:07:42.652Z,0
2018-11-20T03:08:51.296Z,0
2018-11-20T03:09:59.925Z,0
2018-11-20T03:11:08.562Z,0
2018-11-20T03:12:17.194Z,0
2018-11-20T03:13:25.835Z,0
2018-11-20T03:14:34.468Z,0
2018-11-20T03:15:43.624Z,0
2018-11-20T03:16:52.255Z,0
2018-11-20T03:18:00.890Z,0
2018-11-20T03:19:09.799Z,0
2018-11-20T03:20:18.433Z,0
2018-11-20T03:21:27.080Z,0
2018-11-20T03:22:35.702Z,0
2018-11-20T03:23:44.344Z,0
2018-11-20T03:24:53.248Z,0
2018-11-20T03:26:01.883Z,0
2018-11-20T03:27:10.636Z,0
2018-11-20T03:28:19.150Z,0
2018-11-20T03:29:27.779Z,0
2018-11-20T03:30:36.417Z,0
2018-11-20T03:31:45.052Z,0
2018-11-20T03:32:53.687Z,0
2018-11-20T03:34:02.323Z,0
2018-11-20T03:35:10.957Z,0
2018-11-20T03:36:19.753Z,0
2018-11-20T03:37:28.227Z,0
2018-11-20T03:38:36.858Z,0
2018-11-20T03:39:45.492Z,0
2018-11-20T03:40:54.397Z,0
2018-11-20T03:42:03.287Z,0
2018-11-20T03:43:11.926Z,0
2018-11-20T03:44:20.562Z,0
2018-11-20T03:45:29.203Z,0
2018-11-20T03:46:37.833Z,0
2018-11-20T03:47:46.538Z,0
2018-11-20T03:48:55.101Z,0
2018-11-20T03:50:03.744Z,0
2018-11-20T03:51:12.645Z,0
2018-11-20T03:52:21.555Z,0
2018-11-20T03:53:30.185Z,0
2018-11-20T03:54:38.816Z,0
2018-11-20T03:55:47.455Z,0
2018-11-20T03:56:56.089Z,0
2018-11-20T03:58:04.723Z,0
2018-11-20T03:59:13.613Z,0
2018-11-20T04:00:22.252Z,0
2018-11-20T04:01:30.885Z,0
2018-11-20T04:02:39.519Z,0
2018-11-20T04:03:48.150Z,0
2018-11-20T04:04:56.790Z,0
2018-11-20T04:06:05.687Z,0
2018-11-20T04:07:14.324Z,0
2018-11-20T04:08:22.955Z,0
2018-11-20T04:09:31.592Z,0
2018-11-20T04:10:40.228Z,0
2018-11-20T04:11:48.863Z,0
2018-11-20T04:12:57.501Z,0
2018-11-20T04:14:06.160Z,0
2018-11-20T04:15:14.767Z,0
2018-11-20T04:16:23.402Z,0
2018-11-20T04:17:32.307Z,0
2018-11-20T04:18:41.477Z,0
2018-11-20T04:19:50.378Z,0
2018-11-20T04:20:59.016Z,0
2018-11-20T04:22:07.911Z,0
2018-11-20T04:23:16.553Z,0
2018-11-20T04:24:25.463Z,0
2018-11-20T04:25:34.362Z,0
2018-11-20T04:26:42.987Z,0
2018-11-20T04:27:51.626Z,0
2018-11-20T04:29:00.262Z,0
2018-11-20T04:30:08.907Z,0
2018-11-20T04:31:17.545Z,0
2018-11-20T04:32:26.440Z,0
2018-11-20T04:33:35.078Z,0
2018-11-20T04:34:43.708Z,0
2018-11-20T04:35:52.352Z,0
2018-11-20T04:37:00.977Z,0
2018-11-20T04:38:09.616Z,0
2018-11-20T04:39:18.247Z,0
2018-11-20T04:40:26.892Z,0
2018-11-20T04:41:35.514Z,0
2018-11-20T04:42:44.149Z,0
2018-11-20T04:43:52.783Z,0
2018-11-20T04:45:01.434Z,0
2018-11-20T04:46:10.320Z,0
2018-11-20T04:47:18.949Z,0
2018-11-20T04:48:27.580Z,0
2018-11-20T04:49:36.236Z,0
2018-11-20T04:50:45.121Z,0
2018-11-20T04:51:53.756Z,0
2018-11-20T04:53:02.659Z,0
2018-11-20T04:54:11.546Z,0
2018-11-20T04:55:20.189Z,0
2018-11-20T04:56:28.822Z,0
2018-11-20T04:57:37.790Z,0
2018-11-20T04:58:46.351Z,0
2018-11-20T04:59:54.993Z,0
2018-11-20T05:01:03.626Z,0
2018-11-20T05:02:12.262Z,0
2018-11-20T05:03:20.886Z,0
2018-11-20T05:04:29.521Z,0
2018-11-20T05:05:38.162Z,0
2018-11-20T05:06:46.830Z,0
2018-11-20T05:07:55.433Z,0
2018-11-20T05:09:04.058Z,0
2018-11-20T05:10:12.961Z,0
2018-11-20T05:11:21.858Z,0
2018-11-20T05:12:30.500Z,0
2018-11-20T05:13:39.128Z,0
2018-11-20T05:14:48.026Z,0
2018-11-20T05:15:56.657Z,0
2018-11-20T05:17:05.303Z,0
2018-11-20T05:18:14.193Z,0
2018-11-20T05:19:22.828Z,0
2018-11-20T05:20:31.466Z,0
2018-11-20T05:21:40.099Z,0
2018-11-20T05:22:48.730Z,0
2018-11-20T05:23:57.366Z,0
2018-11-20T05:25:06.002Z,0
2018-11-20T05:26:14.633Z,0
2018-11-20T05:27:23.543Z,0
2018-11-20T05:28:32.434Z,0
2018-11-20T05:29:41.070Z,0
2018-11-20T05:30:49.980Z,0
2018-11-20T05:31:58.608Z,0
2018-11-20T05:33:07.247Z,0
2018-11-20T05:34:16.151Z,0
2018-11-20T05:35:24.780Z,0
2018-11-20T05:36:33.429Z,0
2018-11-20T05:37:42.321Z,0
2018-11-20T05:38:50.957Z,0
2018-11-20T05:39:59.587Z,0
2018-11-20T05:41:08.222Z,0
2018-11-20T05:42:16.856Z,0
2018-11-20T05:43:25.493Z,0
2018-11-20T05:44:34.129Z,0
2018-11-20T05:45:42.758Z,0
2018-11-20T05:46:51.870Z,0
2018-11-20T05:48:00.646Z,0
2018-11-20T05:49:09.286Z,0
2018-11-20T05:50:17.915Z,0
2018-11-20T05:51:26.548Z,0
2018-11-20T05:52:35.443Z,0
2018-11-20T05:53:44.082Z,0
2018-11-20T05:54:52.712Z,0
2018-11-20T05:56:01.365Z,0
2018-11-20T05:57:09.990Z,0
2018-11-20T05:58:18.631Z,0
2018-11-20T05:59:27.265Z,0
2018-11-20T06:00:35.910Z,0
2018-11-20T06:01:44.531Z,0
2018-11-20T06:02:53.164Z,0
2018-11-20T06:04:02.074Z,0
2018-11-20T06:05:10.708Z,0
2018-11-20T06:06:19.613Z,0
2018-11-20T06:07:28.238Z,0
2018-11-20T06:08:36.878Z,0
2018-11-20T06:09:45.513Z,0
2018-11-20T06:10:54.149Z,0
2018-11-20T06:12:03.017Z,0
2018-11-20T06:13:11.755Z,0
2018-11-20T06:14:20.387Z,0
2018-11-20T06:15:29.282Z,0
2018-11-20T06:16:37.926Z,0
2018-11-20T06:17:46.825Z,0
2018-11-20T06:18:55.537Z,0
2018-11-20T06:20:04.096Z,0
2018-11-20T06:21:12.734Z,0
2018-11-20T06:22:21.632Z,0
2018-11-20T06:23:30.540Z,0
2018-11-20T06:24:39.176Z,0
2018-11-20T06:25:48.083Z,0
2018-11-20T06:26:56.721Z,0
2018-11-20T06:28:05.357Z,0
2018-11-20T06:29:14.131Z,0
2018-11-20T06:30:22.626Z,0
2018-11-20T06:31:31.262Z,0
2018-11-20T06:32:39.893Z,0
2018-11-20T06:33:48.532Z,4
2018-11-20T06:34:57.280Z,4
2018-11-20T06:36:06.215Z,0
2018-11-20T06:37:14.850Z,4
2018-11-20T06:38:23.489Z,0
2018-11-20T06:39:32.124Z,4
2018-11-20T06:40:40.755Z,4
2018-11-20T06:41:49.389Z,8
2018-11-20T06:42:58.023Z,8
2018-11-20T06:44:07.192Z,8
2018-11-20T06:45:15.817Z,12
2018-11-20T06:46:24.452Z,12
2018-11-20T06:47:33.088Z,12
2018-11-20T06:48:41.731Z,12
2018-11-20T06:49:50.363Z,12
2018-11-20T06:50:58.997Z,16
2018-11-20T06:52:07.628Z,16
2018-11-20T06:53:16.510Z,20
2018-11-20T06:54:25.606Z,24
2018-11-20T06:55:34.238Z,20
2018-11-20T06:56:42.872Z,20
2018-11-20T06:57:51.766Z,24
2018-11-20T06:59:00.673Z,28
2018-11-20T07:00:09.570Z,32
2018-11-20T07:01:18.236Z,32
2018-11-20T07:02:27.134Z,28
2018-11-20T07:03:35.772Z,28
2018-11-20T07:04:44.406Z,24
2018-11-20T07:05:53.316Z,24
2018-11-20T07:07:02.015Z,28
2018-11-20T07:08:11.457Z,28
2018-11-20T07:09:19.913Z,28
2018-11-20T07:10:28.551Z,28
2018-11-20T07:11:37.178Z,28
2018-11-20T07:12:45.815Z,32
2018-11-20T07:13:54.447Z,32
2018-11-20T07:15:03.100Z,32
2018-11-20T07:16:11.837Z,36
2018-11-20T07:17:20.354Z,36
2018-11-20T07:18:28.991Z,36
2018-11-20T07:19:37.620Z,40
2018-11-20T07:20:46.263Z,44
2018-11-20T07:21:54.889Z,44
2018-11-20T07:23:03.530Z,40
2018-11-20T07:24:12.189Z,48
2018-11-20T07:25:20.802Z,48
2018-11-20T07:26:29.428Z,48
2018-11-20T07:27:38.064Z,64
2018-11-20T07:28:46.702Z,68
2018-11-20T07:29:55.396Z,68
2018-11-20T07:31:04.427Z,64
2018-11-20T07:32:12.962Z,68
2018-11-20T07:33:21.592Z,76
2018-11-20T07:34:30.226Z,76
2018-11-20T07:35:39.142Z,80
2018-11-20T07:36:48.405Z,80
2018-11-20T07:37:57.590Z,80
2018-11-20T07:39:06.220Z,80
2018-11-20T07:40:15.138Z,96
2018-11-20T07:41:24.032Z,108
2018-11-20T07:42:32.671Z,104
2018-11-20T07:43:41.821Z,112
2018-11-20T07:44:50.300Z,104
2018-11-20T07:45:59.203Z,100
2018-11-20T07:47:07.842Z,108
2018-11-20T07:48:16.467Z,120
2018-11-20T07:49:25.103Z,124
2018-11-20T07:50:33.743Z,120
2018-11-20T07:51:42.483Z,124
2018-11-20T07:52:51.015Z,112
2018-11-20T07:53:59.640Z,120
2018-11-20T07:55:08.288Z,112
2018-11-20T07:56:17.063Z,120
2018-11-20T07:57:25.554Z,116
2018-11-20T07:58:34.446Z,124
2018-11-20T07:59:43.086Z,136
2018-11-20T08:00:51.715Z,136
2018-11-20T08:02:00.507Z,136
2018-11-20T08:03:09.028Z,140
2018-11-20T08:04:17.660Z,148
2018-11-20T08:05:26.293Z,136
2018-11-20T08:06:34.945Z,156
2018-11-20T08:07:43.575Z,168
2018-11-20T08:08:52.205Z,176
2018-11-20T08:10:00.838Z,188
2018-11-20T08:11:09.473Z,204
2018-11-20T08:12:18.118Z,216
2018-11-20T08:13:26.753Z,216
2018-11-20T08:14:35.395Z,216
2018-11-20T08:15:44.058Z,228
2018-11-20T08:16:52.663Z,228
2018-11-20T08:18:01.297Z,232
2018-11-20T08:19:09.934Z,248
2018-11-20T08:20:18.832Z,264
2018-11-20T08:21:27.470Z,268
2018-11-20T08:22:36.103Z,256
2018-11-20T08:23:44.739Z,244
2018-11-20T08:24:53.370Z,240
2018-11-20T08:26:02.121Z,252
2018-11-20T08:27:10.644Z,244
2018-11-20T08:28:19.281Z,228
2018-11-20T08:29:27.917Z,224
2018-11-20T08:30:36.546Z,220
2018-11-20T08:31:45.182Z,224
2018-11-20T08:32:53.814Z,228
2018-11-20T08:34:02.502Z,232
2018-11-20T08:35:11.184Z,232
2018-11-20T08:36:19.718Z,256
2018-11-20T08:37:28.366Z,268
2018-11-20T08:38:37.006Z,260
2018-11-20T08:39:45.633Z,260
2018-11-20T08:40:54.795Z,264
2018-11-20T08:42:03.494Z,280
2018-11-20T08:43:12.067Z,268
2018-11-20T08:44:21.075Z,300
2018-11-20T08:45:29.678Z,304
2018-11-20T08:46:38.573Z,320
2018-11-20T08:47:47.293Z,300
2018-11-20T08:48:55.849Z,292
2018-11-20T08:50:04.483Z,276
2018-11-20T08:51:13.120Z,272
2018-11-20T08:52:22.013Z,264
2018-11-20T08:53:30.656Z,268
2018-11-20T08:54:39.286Z,276
2018-11-20T08:55:47.920Z,276
2018-11-20T08:56:56.822Z,284
2018-11-20T08:58:05.458Z,280
2018-11-20T08:59:14.096Z,288
2018-11-20T09:00:22.733Z,276
2018-11-20T09:01:31.367Z,276
2018-11-20T09:02:40.114Z,296
2018-11-20T09:03:48.641Z,280
2018-11-20T09:04:57.552Z,280
2018-11-20T09:06:06.199Z,264
2018-11-20T09:07:15.093Z,260
2018-11-20T09:08:23.731Z,296
2018-11-20T09:09:32.893Z,292
2018-11-20T09:10:41.663Z,280
2018-11-20T09:11:50.166Z,288
2018-11-20T09:12:58.799Z,296
2018-11-20T09:14:07.431Z,296
2018-11-20T09:15:16.073Z,316
2018-11-20T09:16:24.698Z,308
2018-11-20T09:17:33.599Z,320
2018-11-20T09:18:42.786Z,332
2018-11-20T09:19:51.695Z,308
2018-11-20T09:21:00.373Z,312
2018-11-20T09:22:08.960Z,324
2018-11-20T09:23:17.593Z,304
2018-11-20T09:24:26.226Z,320
2018-11-20T09:25:35.220Z,332
2018-11-20T09:26:43.791Z,324
2018-11-20T09:27:52.809Z,320
2018-11-20T09:29:01.410Z,336
2018-11-20T09:30:10.317Z,340
2018-11-20T09:31:18.947Z,340
2018-11-20T09:32:27.586Z,348
2018-11-20T09:33:36.209Z,340
2018-11-20T09:34:45.245Z,372
2018-11-20T09:35:54.209Z,344
2018-11-20T09:37:02.846Z,368
2018-11-20T09:38:11.733Z,388
2018-11-20T09:39:20.370Z,404
2018-11-20T09:40:29.010Z,408
2018-11-20T09:41:37.644Z,420
2018-11-20T09:42:46.284Z,488
2018-11-20T09:43:54.909Z,492
2018-11-20T09:45:03.551Z,516
2018-11-20T09:46:12.773Z,520
2018-11-20T09:47:21.420Z,568
2018-11-20T09:48:30.044Z,544
2018-11-20T09:49:38.683Z,520
2018-11-20T09:50:47.320Z,544
2018-11-20T09:51:55.966Z,568
2018-11-20T09:53:04.590Z,684
2018-11-20T09:54:13.546Z,752
2018-11-20T09:55:22.345Z,832
2018-11-20T09:56:30.995Z,692
2018-11-20T09:57:39.890Z,712
2018-11-20T09:58:48.521Z,712
2018-11-20T09:59:57.180Z,648
2018-11-20T10:01:05.789Z,732
2018-11-20T10:02:14.434Z,772
2018-11-20T10:03:23.241Z,772
2018-11-20T10:04:31.901Z,740
2018-11-20T10:05:40.563Z,708
2018-11-20T10:06:49.246Z,708
2018-11-20T10:07:58.978Z,724
2018-11-20T10:09:08.342Z,704
2018-11-20T10:10:17.342Z,748
2018-11-20T10:11:27.003Z,736
2018-11-20T10:12:36.144Z,816
2018-11-20T10:13:45.427Z,808
2018-11-20T10:14:55.750Z,852
2018-11-20T10:16:05.625Z,860
2018-11-20T10:17:14.754Z,848
2018-11-20T10:18:24.240Z,988
2018-11-20T10:19:33.400Z,916
2018-11-20T10:20:42.787Z,1060
2018-11-20T10:21:52.496Z,1012
2018-11-20T10:23:01.670Z,872
2018-11-20T10:24:11.239Z,912
2018-11-20T10:25:20.527Z,940
2018-11-20T10:26:30.380Z,1068
2018-11-20T10:27:39.502Z,1052
2018-11-20T10:28:49.532Z,968
2018-11-20T10:29:58.765Z,888
2018-11-20T10:31:08.426Z,992
2018-11-20T10:32:17.938Z,1032
2018-11-20T10:33:27.071Z,1032
2018-11-20T10:34:36.786Z,1092
2018-11-20T10:35:46.707Z,1216
2018-11-20T10:36:56.137Z,1188
2018-11-20T10:38:05.332Z,1008
2018-11-20T10:39:14.355Z,944
2018-11-20T10:40:23.878Z,960
2018-11-20T10:41:33.741Z,1012
2018-11-20T10:42:43.045Z,980
2018-11-20T10:43:52.267Z,1168
2018-11-20T10:45:02.154Z,1304
2018-11-20T10:46:11.553Z,1344
2018-11-20T10:47:21.210Z,1332
2018-11-20T10:48:30.552Z,1420
2018-11-20T10:49:40.347Z,1500
2018-11-20T10:50:49.588Z,1784
2018-11-20T10:51:58.848Z,1964
2018-11-20T10:53:08.444Z,2024
2018-11-20T10:54:17.686Z,2224
2018-11-20T10:55:27.502Z,2212
2018-11-20T10:56:37.459Z,1996
2018-11-20T10:57:46.735Z,1684
2018-11-20T10:58:56.482Z,1580
2018-11-20T11:00:05.694Z,1584
2018-11-20T11:01:15.168Z,1608
2018-11-20T11:02:24.389Z,1944
2018-11-20T11:03:33.678Z,1880
2018-11-20T11:04:42.849Z,1584
2018-11-20T11:05:52.242Z,1412
2018-11-20T11:07:01.748Z,1232
2018-11-20T11:08:11.565Z,1100
2018-11-20T11:09:20.706Z,1328
2018-11-20T11:10:30.808Z,1252
2018-11-20T11:11:40.183Z,1324
2018-11-20T11:12:49.128Z,1272
2018-11-20T11:13:58.204Z,1164
2018-11-20T11:15:07.477Z,1100
2018-11-20T11:16:17.153Z,1116
2018-11-20T11:17:26.509Z,1204
2018-11-20T11:18:36.142Z,1216
2018-11-20T11:19:45.325Z,1136
2018-11-20T11:20:54.923Z,1112
2018-11-20T11:22:05.108Z,1156
2018-11-20T11:23:14.611Z,1108
2018-11-20T11:24:24.404Z,1176
2018-11-20T11:25:33.830Z,1100
2018-11-20T11:26:42.928Z,1144
2018-11-20T11:27:52.253Z,1108
2018-11-20T11:29:04.356Z,1144
2018-11-20T11:30:17.018Z,1128
2018-11-20T11:31:30.576Z,1072
2018-11-20T11:32:40.868Z,1084
2018-11-20T11:33:49.497Z,1024
2018-11-20T11:34:58.142Z,1020
2018-11-20T11:36:06.778Z,1012
2018-11-20T11:37:15.413Z,1032
2018-11-20T11:38:24.307Z,1028
2018-11-20T11:39:32.954Z,1016
2018-11-20T11:40:41.581Z,996
2018-11-20T11:41:50.617Z,1032
2018-11-20T11:42:59.250Z,1004
2018-11-20T11:44:07.888Z,944
2018-11-20T11:45:16.522Z,960
2018-11-20T11:46:25.422Z,1000
2018-11-20T11:47:34.055Z,1016
2018-11-20T11:48:42.690Z,1012
2018-11-20T11:49:51.587Z,964
2018-11-20T11:51:00.488Z,1032
2018-11-20T11:52:09.126Z,1072
2018-11-20T11:53:17.755Z,1072
2018-11-20T11:54:26.392Z,1016
2018-11-20T11:55:35.027Z,980
2018-11-20T11:56:43.666Z,908
2018-11-20T11:57:52.298Z,936
2018-11-20T11:59:01.199Z,900
2018-11-20T12:00:09.841Z,856
2018-11-20T12:01:18.481Z,848
2018-11-20T12:03:35.538Z,804
2018-11-20T12:04:44.172Z,792
2018-11-20T12:05:55.866Z,768
2018-11-20T12:07:04.964Z,704
2018-11-20T12:08:13.598Z,684
2018-11-20T12:09:22.231Z,644
2018-11-20T12:10:30.863Z,596
2018-11-20T12:11:39.514Z,592
2018-11-20T12:12:48.411Z,636
2018-11-20T12:13:57.049Z,636
2018-11-20T12:15:05.682Z,660
2018-11-20T12:16:14.731Z,640
2018-11-20T12:17:23.365Z,636
2018-11-20T12:18:32.002Z,664
2018-11-20T12:19:40.632Z,712
2018-11-20T12:20:49.272Z,688
2018-11-20T12:21:57.947Z,708
2018-11-20T12:23:06.586Z,708
2018-11-20T12:24:15.482Z,736
2018-11-20T12:25:24.125Z,752
2018-11-20T12:26:32.759Z,796
2018-11-20T12:27:41.397Z,824
2018-11-20T12:28:53.002Z,852
2018-11-20T12:30:00.057Z,884
2018-11-20T12:31:09.369Z,904
2018-11-20T12:32:20.574Z,964
2018-11-20T12:33:33.265Z,1024
2018-11-20T12:34:41.906Z,1032
2018-11-20T12:35:50.540Z,1132
2018-11-20T12:36:59.182Z,1268
2018-11-20T12:38:07.826Z,1228
2018-11-20T12:39:16.460Z,1272
2018-11-20T12:40:25.101Z,1212
2018-11-20T12:41:34.868Z,1100
2018-11-20T12:42:42.377Z,1068
2018-11-20T12:43:51.011Z,1052
2018-11-20T12:45:01.262Z,948
2018-11-20T12:46:13.069Z,972
2018-11-20T12:47:18.555Z,904
2018-11-20T12:48:27.194Z,864
2018-11-20T12:49:35.830Z,852
2018-11-20T12:50:46.818Z,888
2018-11-20T12:51:55.825Z,884
2018-11-20T12:53:04.467Z,856
2018-11-20T12:54:14.716Z,796
2018-11-20T12:55:22.346Z,740
2018-11-20T12:56:31.252Z,768
2018-11-20T12:57:39.892Z,796
2018-11-20T12:58:48.525Z,764
2018-11-20T12:59:57.162Z,764
2018-11-20T13:01:05.797Z,720
2018-11-20T13:02:15.155Z,748
2018-11-20T13:03:23.462Z,744
2018-11-20T13:04:32.234Z,768
2018-11-20T13:05:41.005Z,860
2018-11-20T13:06:49.934Z,828
2018-11-20T13:07:58.575Z,840
2018-11-20T13:09:07.202Z,740
2018-11-20T13:10:15.845Z,680
2018-11-20T13:11:24.472Z,672
2018-11-20T13:12:33.109Z,704
2018-11-20T13:13:41.747Z,688
2018-11-20T13:14:50.719Z,708
2018-11-20T13:15:59.348Z,656
2018-11-20T13:17:08.950Z,668
2018-11-20T13:18:18.217Z,684
2018-11-20T13:19:27.362Z,712
2018-11-20T13:20:35.496Z,672
2018-11-20T13:21:47.247Z,572
2018-11-20T13:22:55.884Z,564
2018-11-20T13:24:04.513Z,540
2018-11-20T13:25:16.466Z,548
2018-11-20T13:26:25.102Z,552
2018-11-20T13:27:34.010Z,560
2018-11-20T13:28:42.635Z,572
2018-11-20T13:29:51.280Z,612
2018-11-20T13:30:59.912Z,700
2018-11-20T13:32:08.551Z,736
2018-11-20T13:33:17.804Z,760
2018-11-20T13:34:29.086Z,752
2018-11-20T13:35:36.383Z,756
2018-11-20T13:36:45.023Z,800
2018-11-20T13:37:53.650Z,864
2018-11-20T13:39:02.943Z,816
2018-11-20T13:40:11.194Z,784
2018-11-20T13:41:20.362Z,744
2018-11-20T13:42:28.998Z,724
2018-11-20T13:43:38.660Z,712
2018-11-20T13:44:47.299Z,716
2018-11-20T13:45:55.928Z,708
2018-11-20T13:47:04.577Z,676
2018-11-20T13:48:13.198Z,616
2018-11-20T13:49:21.837Z,572
2018-11-20T13:50:31.879Z,608
2018-11-20T13:51:39.111Z,616
2018-11-20T13:52:48.985Z,628
2018-11-20T13:53:58.742Z,660
2018-11-20T13:55:07.378Z,680
2018-11-20T13:56:16.024Z,684
2018-11-20T13:57:24.660Z,688
2018-11-20T13:58:33.294Z,664
2018-11-20T13:59:41.927Z,652
2018-11-20T14:00:50.831Z,616
2018-11-20T14:01:59.481Z,584
2018-11-20T14:03:08.374Z,512
2018-11-20T14:04:17.016Z,468
2018-11-20T14:05:25.640Z,444
2018-11-20T14:06:34.278Z,444
2018-11-20T14:07:42.917Z,424
2018-11-20T14:08:51.551Z,400
2018-11-20T14:10:00.196Z,376
2018-11-20T14:11:08.823Z,364
2018-11-20T14:12:17.462Z,356
2018-11-20T14:13:26.101Z,360
2018-11-20T14:14:35.059Z,360
2018-11-20T14:15:43.648Z,344
2018-11-20T14:16:52.280Z,324
2018-11-20T14:18:00.911Z,312
2018-11-20T14:19:09.542Z,308
2018-11-20T14:20:18.186Z,312
2018-11-20T14:21:26.816Z,312
2018-11-20T14:22:35.456Z,316
2018-11-20T14:23:44.083Z,320
2018-11-20T14:24:52.728Z,308
2018-11-20T14:26:01.361Z,304
2018-11-20T14:27:10.002Z,288
2018-11-20T14:28:18.630Z,284
2018-11-20T14:29:27.277Z,272
2018-11-20T14:30:35.908Z,284
2018-11-20T14:31:44.549Z,268
2018-11-20T14:32:53.175Z,268
2018-11-20T14:34:01.816Z,248
2018-11-20T14:35:10.717Z,232
2018-11-20T14:36:19.618Z,224
2018-11-20T14:37:28.256Z,204
2018-11-20T14:38:36.884Z,180
2018-11-20T14:39:45.524Z,156
2018-11-20T14:40:54.153Z,144
2018-11-20T14:42:02.796Z,128
2018-11-20T14:43:11.717Z,124
2018-11-20T14:44:20.357Z,120
2018-11-20T14:45:28.992Z,104
2018-11-20T14:46:37.902Z,120
2018-11-20T14:47:46.527Z,128
2018-11-20T14:48:55.161Z,128
2018-11-20T14:50:03.796Z,128
2018-11-20T14:51:12.442Z,132
2018-11-20T14:52:21.364Z,136
2018-11-20T14:53:30.011Z,144
2018-11-20T14:54:38.657Z,136
2018-11-20T14:55:47.558Z,140
2018-11-20T14:56:56.552Z,124
2018-11-20T14:58:05.540Z,116
2018-11-20T14:59:14.189Z,112
2018-11-20T15:00:22.811Z,104
2018-11-20T15:01:31.757Z,104
2018-11-20T15:02:40.506Z,100
2018-11-20T15:03:49.190Z,96
2018-11-20T15:04:57.817Z,92
2018-11-20T15:06:06.459Z,84
2018-11-20T15:07:15.135Z,84
2018-11-20T15:08:24.038Z,80
2018-11-20T15:09:32.668Z,76
2018-11-20T15:10:41.444Z,76
2018-11-20T15:11:50.081Z,80
2018-11-20T15:12:58.792Z,76
2018-11-20T15:14:07.594Z,76
2018-11-20T15:15:16.438Z,64
2018-11-20T15:16:25.099Z,64
2018-11-20T15:17:33.787Z,56
2018-11-20T15:18:46.512Z,52
2018-11-20T15:19:55.138Z,52
2018-11-20T15:21:03.778Z,48
2018-11-20T15:22:12.405Z,52
2018-11-20T15:23:21.049Z,44
2018-11-20T15:24:29.944Z,44
2018-11-20T15:25:38.582Z,44
2018-11-20T15:26:47.748Z,40
2018-11-20T15:27:56.391Z,36
2018-11-20T15:29:05.031Z,36
2018-11-20T15:30:13.667Z,36
2018-11-20T15:31:22.297Z,32
2018-11-20T15:32:30.928Z,28
2018-11-20T15:33:39.570Z,32
2018-11-20T15:34:48.208Z,24
2018-11-20T15:35:57.100Z,24
2018-11-20T15:37:05.735Z,20
2018-11-20T15:38:14.633Z,16
2018-11-20T15:39:23.531Z,12
2018-11-20T15:40:32.174Z,12
2018-11-20T15:41:40.804Z,8
2018-11-20T15:42:49.443Z,12
2018-11-20T15:43:58.076Z,8
2018-11-20T15:45:06.712Z,8
2018-11-20T15:46:15.342Z,4
2018-11-20T15:47:23.980Z,8
2018-11-20T15:48:32.619Z,8
2018-11-20T15:49:41.262Z,8
2018-11-20T15:50:49.893Z,4
2018-11-20T15:51:59.050Z,4
2018-11-20T15:53:07.955Z,4
2018-11-20T15:54:16.595Z,0
2018-11-20T15:55:25.497Z,4
2018-11-20T15:56:34.125Z,4
2018-11-20T15:57:42.762Z,0
2018-11-20T15:58:51.397Z,0
2018-11-20T16:00:00.036Z,0
2018-11-20T16:01:10.152Z,0
2018-11-20T16:02:18.787Z,0
2018-11-20T16:03:27.416Z,0
2018-11-20T16:04:36.060Z,0
2018-11-20T16:05:44.688Z,0
2018-11-20T16:06:53.324Z,0
2018-11-20T16:08:01.954Z,0
2018-11-20T16:09:10.587Z,0
2018-11-20T16:10:19.229Z,0
2018-11-20T16:11:27.865Z,0
2018-11-20T16:12:36.502Z,0
2018-11-20T16:13:45.129Z,0
2018-11-20T16:14:53.774Z,0
2018-11-20T16:16:02.411Z,0
2018-11-20T16:17:16.654Z,0
2018-11-20T16:18:19.679Z,0
2018-11-20T16:19:28.326Z,0